sensor_id;sensor_type;location;lat;lon;timestamp;P1;durP1;ratioP1;P2;durP2;ratioP2
2992;SDS011;1506;48.932;9.478;2023-04-01T00:00:01;4.73;;;0.60;;
2992;SDS011;1506;48.932;9.478;2023-04-01T00:02:37;2.80;;;0.60;;
2992;SDS011;1506;48.932;9.478;2023-04-01T00:05:04;0.70;;;0.60;;
2992;SDS011;1506;48.932;9.478;2023-04-01T00:07:32;5.03;;;0.63;;
2992;SDS011;1506;48.932;9.478;2023-04-01T00:10:00;0.50;;;0.50;;
2992;SDS011;1506;48.932;9.478;2023-04-01T00:12:27;1.53;;;0.60;;
2992;SDS011;1506;48.932;9.478;2023-04-01T00:14:55;0.80;;;0.80;;
2992;SDS011;1506;48.932;9.478;2023-04-01T00:17:22;1.47;;;0.60;;
2992;SDS011;1506;48.932;9.478;2023-04-01T00:19:49;2.00;;;0.70;;
2992;SDS011;1506;48.932;9.478;2023-04-01T00:22:16;1.60;;;0.60;;
2992;SDS011;1506;48.932;9.478;2023-04-01T00:24:43;1.10;;;1.00;;
2992;SDS011;1506;48.932;9.478;2023-04-01T00:27:10;2.13;;;1.00;;
2992;SDS011;1506;48.932;9.478;2023-04-01T00:29:37;0.73;;;0.70;;
2992;SDS011;1506;48.932;9.478;2023-04-01T00:32:04;0.60;;;0.60;;
2992;SDS011;1506;48.932;9.478;2023-04-01T00:34:31;0.60;;;0.60;;
2992;SDS011;1506;48.932;9.478;2023-04-01T00:36:58;0.70;;;0.70;;
2992;SDS011;1506;48.932;9.478;2023-04-01T00:39:28;1.50;;;0.70;;
2992;SDS011;1506;48.932;9.478;2023-04-01T00:41:57;0.57;;;0.57;;
2992;SDS011;1506;48.932;9.478;2023-04-01T00:44:26;0.67;;;0.67;;
2992;SDS011;1506;48.932;9.478;2023-04-01T00:46:56;3.60;;;0.80;;
2992;SDS011;1506;48.932;9.478;2023-04-01T00:49:24;2.20;;;0.83;;
2992;SDS011;1506;48.932;9.478;2023-04-01T00:52:17;2.80;;;1.20;;
2992;SDS011;1506;48.932;9.478;2023-04-01T00:54:49;2.93;;;0.70;;
2992;SDS011;1506;48.932;9.478;2023-04-01T00:57:24;0.80;;;0.73;;
2992;SDS011;1506;48.932;9.478;2023-04-01T00:59:57;1.40;;;0.80;;
2992;SDS011;1506;48.932;9.478;2023-04-01T01:02:25;1.90;;;1.10;;
2992;SDS011;1506;48.932;9.478;2023-04-01T01:04:52;1.63;;;0.87;;
2992;SDS011;1506;48.932;9.478;2023-04-01T01:07:35;2.60;;;0.70;;
2992;SDS011;1506;48.932;9.478;2023-04-01T01:16:11;1.63;;;0.70;;
2992;SDS011;1506;48.932;9.478;2023-04-01T01:22:18;2.20;;;0.83;;
2992;SDS011;1506;48.932;9.478;2023-04-01T01:28:44;0.90;;;0.77;;
2992;SDS011;1506;48.932;9.478;2023-04-01T01:37:14;4.03;;;0.50;;
2992;SDS011;1506;48.932;9.478;2023-04-01T01:39:45;3.30;;;1.00;;
2992;SDS011;1506;48.932;9.478;2023-04-01T01:42:19;2.20;;;0.77;;
2992;SDS011;1506;48.932;9.478;2023-04-01T01:44:49;2.33;;;1.10;;
2992;SDS011;1506;48.932;9.478;2023-04-01T01:47:18;2.07;;;0.60;;
2992;SDS011;1506;48.932;9.478;2023-04-01T01:49:48;2.03;;;0.70;;
2992;SDS011;1506;48.932;9.478;2023-04-01T01:52:17;1.20;;;0.80;;
2992;SDS011;1506;48.932;9.478;2023-04-01T01:54:52;1.53;;;0.90;;
2992;SDS011;1506;48.932;9.478;2023-04-01T01:57:29;1.10;;;1.00;;
2992;SDS011;1506;48.932;9.478;2023-04-01T02:00:05;7.53;;;0.80;;
2992;SDS011;1506;48.932;9.478;2023-04-01T02:02:42;0.80;;;0.80;;
2992;SDS011;1506;48.932;9.478;2023-04-01T02:05:17;1.87;;;1.00;;
2992;SDS011;1506;48.932;9.478;2023-04-01T02:07:49;0.60;;;0.60;;
2992;SDS011;1506;48.932;9.478;2023-04-01T02:10:27;1.70;;;0.90;;
2992;SDS011;1506;48.932;9.478;2023-04-01T02:12:58;1.33;;;0.93;;
2992;SDS011;1506;48.932;9.478;2023-04-01T02:15:30;0.50;;;0.50;;
2992;SDS011;1506;48.932;9.478;2023-04-01T02:18:00;10.60;;;1.30;;
2992;SDS011;1506;48.932;9.478;2023-04-01T02:20:28;0.90;;;0.90;;
2992;SDS011;1506;48.932;9.478;2023-04-01T02:22:56;4.40;;;0.93;;
2992;SDS011;1506;48.932;9.478;2023-04-01T02:25:30;1.80;;;0.73;;
2992;SDS011;1506;48.932;9.478;2023-04-01T02:28:02;2.63;;;0.83;;
2992;SDS011;1506;48.932;9.478;2023-04-01T02:30:33;3.23;;;0.80;;
2992;SDS011;1506;48.932;9.478;2023-04-01T02:33:03;3.43;;;1.40;;
2992;SDS011;1506;48.932;9.478;2023-04-01T02:35:33;2.07;;;0.80;;
2992;SDS011;1506;48.932;9.478;2023-04-01T02:38:02;3.07;;;0.80;;
2992;SDS011;1506;48.932;9.478;2023-04-01T02:40:40;1.83;;;0.80;;
2992;SDS011;1506;48.932;9.478;2023-04-01T02:43:16;3.10;;;0.80;;
2992;SDS011;1506;48.932;9.478;2023-04-01T02:45:45;2.10;;;0.70;;
2992;SDS011;1506;48.932;9.478;2023-04-01T02:48:12;4.00;;;0.80;;
2992;SDS011;1506;48.932;9.478;2023-04-01T02:50:40;2.03;;;0.70;;
2992;SDS011;1506;48.932;9.478;2023-04-01T02:53:07;1.63;;;0.80;;
2992;SDS011;1506;48.932;9.478;2023-04-01T02:55:34;2.67;;;0.67;;
2992;SDS011;1506;48.932;9.478;2023-04-01T02:58:01;4.10;;;1.50;;
2992;SDS011;1506;48.932;9.478;2023-04-01T03:00:29;2.83;;;0.57;;
2992;SDS011;1506;48.932;9.478;2023-04-01T03:02:56;2.73;;;1.00;;
2992;SDS011;1506;48.932;9.478;2023-04-01T03:05:23;1.37;;;1.27;;
2992;SDS011;1506;48.932;9.478;2023-04-01T03:07:50;0.53;;;0.50;;
2992;SDS011;1506;48.932;9.478;2023-04-01T03:10:18;3.87;;;0.50;;
2992;SDS011;1506;48.932;9.478;2023-04-01T03:12:45;2.07;;;0.50;;
2992;SDS011;1506;48.932;9.478;2023-04-01T03:15:12;4.63;;;0.60;;
2992;SDS011;1506;48.932;9.478;2023-04-01T03:17:41;1.07;;;0.63;;
2992;SDS011;1506;48.932;9.478;2023-04-01T03:20:10;1.33;;;0.90;;
2992;SDS011;1506;48.932;9.478;2023-04-01T03:22:38;0.60;;;0.53;;
2992;SDS011;1506;48.932;9.478;2023-04-01T03:25:08;2.90;;;0.73;;
2992;SDS011;1506;48.932;9.478;2023-04-01T03:27:36;0.50;;;0.50;;
2992;SDS011;1506;48.932;9.478;2023-04-01T03:30:05;1.00;;;0.63;;
2992;SDS011;1506;48.932;9.478;2023-04-01T03:32:39;0.70;;;0.50;;
2992;SDS011;1506;48.932;9.478;2023-04-01T03:35:06;3.80;;;0.50;;
2992;SDS011;1506;48.932;9.478;2023-04-01T03:37:35;1.17;;;0.80;;
2992;SDS011;1506;48.932;9.478;2023-04-01T03:40:03;0.40;;;0.40;;
2992;SDS011;1506;48.932;9.478;2023-04-01T03:42:31;1.00;;;0.70;;
2992;SDS011;1506;48.932;9.478;2023-04-01T03:44:58;0.50;;;0.50;;
2992;SDS011;1506;48.932;9.478;2023-04-01T03:47:26;14.53;;;0.80;;
2992;SDS011;1506;48.932;9.478;2023-04-01T03:49:53;2.30;;;0.93;;
2992;SDS011;1506;48.932;9.478;2023-04-01T03:52:21;1.20;;;0.70;;
2992;SDS011;1506;48.932;9.478;2023-04-01T03:54:48;0.60;;;0.57;;
2992;SDS011;1506;48.932;9.478;2023-04-01T03:57:15;0.70;;;0.60;;
2992;SDS011;1506;48.932;9.478;2023-04-01T03:59:42;0.60;;;0.50;;
2992;SDS011;1506;48.932;9.478;2023-04-01T04:02:09;1.80;;;0.60;;
2992;SDS011;1506;48.932;9.478;2023-04-01T04:04:37;0.97;;;0.70;;
2992;SDS011;1506;48.932;9.478;2023-04-01T04:07:04;4.83;;;0.60;;
2992;SDS011;1506;48.932;9.478;2023-04-01T04:09:48;1.03;;;0.60;;
2992;SDS011;1506;48.932;9.478;2023-04-01T04:12:15;0.60;;;0.60;;
2992;SDS011;1506;48.932;9.478;2023-04-01T04:14:42;1.43;;;1.33;;
2992;SDS011;1506;48.932;9.478;2023-04-01T04:17:10;0.50;;;0.50;;
2992;SDS011;1506;48.932;9.478;2023-04-01T04:19:43;0.80;;;0.60;;
2992;SDS011;1506;48.932;9.478;2023-04-01T04:22:11;1.67;;;0.70;;
2992;SDS011;1506;48.932;9.478;2023-04-01T04:24:38;0.60;;;0.57;;
2992;SDS011;1506;48.932;9.478;2023-04-01T04:27:08;0.80;;;0.60;;
2992;SDS011;1506;48.932;9.478;2023-04-01T04:29:42;2.97;;;0.60;;
2992;SDS011;1506;48.932;9.478;2023-04-01T04:32:09;0.60;;;0.53;;
2992;SDS011;1506;48.932;9.478;2023-04-01T04:34:36;0.80;;;0.57;;
2992;SDS011;1506;48.932;9.478;2023-04-01T04:37:04;1.13;;;0.80;;
2992;SDS011;1506;48.932;9.478;2023-04-01T04:39:34;0.70;;;0.60;;
2992;SDS011;1506;48.932;9.478;2023-04-01T04:42:01;0.70;;;0.60;;
2992;SDS011;1506;48.932;9.478;2023-04-01T04:44:29;1.00;;;0.50;;
2992;SDS011;1506;48.932;9.478;2023-04-01T04:46:56;0.50;;;0.50;;
2992;SDS011;1506;48.932;9.478;2023-04-01T04:49:24;0.90;;;0.50;;
2992;SDS011;1506;48.932;9.478;2023-04-01T04:51:52;0.70;;;0.60;;
2992;SDS011;1506;48.932;9.478;2023-04-01T04:54:22;0.80;;;0.50;;
2992;SDS011;1506;48.932;9.478;2023-04-01T04:56:53;0.80;;;0.50;;
2992;SDS011;1506;48.932;9.478;2023-04-01T04:59:22;3.27;;;0.70;;
2992;SDS011;1506;48.932;9.478;2023-04-01T05:01:57;0.60;;;0.60;;
2992;SDS011;1506;48.932;9.478;2023-04-01T05:04:24;1.10;;;0.60;;
2992;SDS011;1506;48.932;9.478;2023-04-01T05:06:51;2.00;;;0.57;;
2992;SDS011;1506;48.932;9.478;2023-04-01T05:09:18;0.60;;;0.60;;
2992;SDS011;1506;48.932;9.478;2023-04-01T05:11:45;1.37;;;0.90;;
2992;SDS011;1506;48.932;9.478;2023-04-01T05:14:13;2.10;;;0.50;;
2992;SDS011;1506;48.932;9.478;2023-04-01T05:16:47;1.83;;;0.90;;
2992;SDS011;1506;48.932;9.478;2023-04-01T05:19:15;1.57;;;0.70;;
2992;SDS011;1506;48.932;9.478;2023-04-01T05:21:42;1.23;;;0.47;;
2992;SDS011;1506;48.932;9.478;2023-04-01T05:24:09;0.60;;;0.43;;
2992;SDS011;1506;48.932;9.478;2023-04-01T05:26:37;0.50;;;0.47;;
2992;SDS011;1506;48.932;9.478;2023-04-01T05:29:04;0.80;;;0.60;;
2992;SDS011;1506;48.932;9.478;2023-04-01T05:31:32;0.60;;;0.50;;
2992;SDS011;1506;48.932;9.478;2023-04-01T05:33:59;0.70;;;0.60;;
2992;SDS011;1506;48.932;9.478;2023-04-01T05:36:26;0.70;;;0.57;;
2992;SDS011;1506;48.932;9.478;2023-04-01T05:38:54;0.90;;;0.50;;
2992;SDS011;1506;48.932;9.478;2023-04-01T05:41:24;2.63;;;1.13;;
2992;SDS011;1506;48.932;9.478;2023-04-01T05:43:52;2.93;;;0.80;;
2992;SDS011;1506;48.932;9.478;2023-04-01T05:46:37;3.50;;;0.77;;
2992;SDS011;1506;48.932;9.478;2023-04-01T05:49:18;2.10;;;0.70;;
2992;SDS011;1506;48.932;9.478;2023-04-01T05:51:46;1.67;;;0.50;;
2992;SDS011;1506;48.932;9.478;2023-04-01T05:54:13;0.60;;;0.60;;
2992;SDS011;1506;48.932;9.478;2023-04-01T05:56:41;3.23;;;0.87;;
2992;SDS011;1506;48.932;9.478;2023-04-01T05:59:09;5.53;;;0.90;;
2992;SDS011;1506;48.932;9.478;2023-04-01T06:01:37;5.50;;;0.70;;
2992;SDS011;1506;48.932;9.478;2023-04-01T06:04:05;1.23;;;0.60;;
2992;SDS011;1506;48.932;9.478;2023-04-01T06:06:32;0.80;;;0.80;;
2992;SDS011;1506;48.932;9.478;2023-04-01T06:09:12;0.80;;;0.70;;
2992;SDS011;1506;48.932;9.478;2023-04-01T06:36:53;3.13;;;0.93;;
2992;SDS011;1506;48.932;9.478;2023-04-01T06:42:17;9.30;;;0.70;;
2992;SDS011;1506;48.932;9.478;2023-04-01T06:48:23;0.70;;;0.60;;
2992;SDS011;1506;48.932;9.478;2023-04-01T06:51:38;0.80;;;0.60;;
2992;SDS011;1506;48.932;9.478;2023-04-01T06:54:40;0.90;;;0.77;;
2992;SDS011;1506;48.932;9.478;2023-04-01T06:57:41;1.10;;;0.70;;
2992;SDS011;1506;48.932;9.478;2023-04-01T07:00:13;2.67;;;0.60;;
2992;SDS011;1506;48.932;9.478;2023-04-01T07:02:48;0.60;;;0.60;;
2992;SDS011;1506;48.932;9.478;2023-04-01T07:05:24;0.80;;;0.80;;
2992;SDS011;1506;48.932;9.478;2023-04-01T07:08:03;1.47;;;0.70;;
2992;SDS011;1506;48.932;9.478;2023-04-01T07:13:41;4.50;;;1.37;;
2992;SDS011;1506;48.932;9.478;2023-04-01T07:16:25;0.90;;;0.90;;
2992;SDS011;1506;48.932;9.478;2023-04-01T07:19:09;1.07;;;0.97;;
2992;SDS011;1506;48.932;9.478;2023-04-01T07:22:09;1.37;;;0.70;;
2992;SDS011;1506;48.932;9.478;2023-04-01T07:25:05;2.23;;;0.60;;
2992;SDS011;1506;48.932;9.478;2023-04-01T07:27:44;1.40;;;0.60;;
2992;SDS011;1506;48.932;9.478;2023-04-01T07:30:13;3.27;;;0.73;;
2992;SDS011;1506;48.932;9.478;2023-04-01T07:32:47;1.10;;;0.90;;
2992;SDS011;1506;48.932;9.478;2023-04-01T07:35:41;1.70;;;0.63;;
2992;SDS011;1506;48.932;9.478;2023-04-01T07:47:20;1.10;;;1.00;;
2992;SDS011;1506;48.932;9.478;2023-04-01T07:50:13;0.40;;;0.40;;
2992;SDS011;1506;48.932;9.478;2023-04-01T07:55:32;1.37;;;0.87;;
2992;SDS011;1506;48.932;9.478;2023-04-01T07:58:32;1.37;;;0.70;;
2992;SDS011;1506;48.932;9.478;2023-04-01T08:22:23;2.60;;;0.90;;
2992;SDS011;1506;48.932;9.478;2023-04-01T08:25:25;1.50;;;0.60;;
2992;SDS011;1506;48.932;9.478;2023-04-01T08:33:25;0.80;;;0.80;;
2992;SDS011;1506;48.932;9.478;2023-04-01T08:36:03;4.33;;;0.70;;
2992;SDS011;1506;48.932;9.478;2023-04-01T08:38:44;0.60;;;0.57;;
2992;SDS011;1506;48.932;9.478;2023-04-01T08:44:34;1.43;;;0.77;;
2992;SDS011;1506;48.932;9.478;2023-04-01T08:51:09;0.77;;;0.70;;
2992;SDS011;1506;48.932;9.478;2023-04-01T09:11:47;0.93;;;0.80;;
2992;SDS011;1506;48.932;9.478;2023-04-01T09:14:47;6.70;;;0.90;;
2992;SDS011;1506;48.932;9.478;2023-04-01T09:29:26;1.53;;;0.93;;
2992;SDS011;1506;48.932;9.478;2023-04-01T09:38:22;0.80;;;0.70;;
2992;SDS011;1506;48.932;9.478;2023-04-01T09:41:07;1.60;;;0.67;;
2992;SDS011;1506;48.932;9.478;2023-04-01T09:44:34;0.70;;;0.60;;
2992;SDS011;1506;48.932;9.478;2023-04-01T09:50:42;1.60;;;0.70;;
2992;SDS011;1506;48.932;9.478;2023-04-01T10:02:54;0.90;;;0.90;;
2992;SDS011;1506;48.932;9.478;2023-04-01T10:20:20;1.37;;;0.90;;
2992;SDS011;1506;48.932;9.478;2023-04-01T10:33:09;0.60;;;0.60;;
2992;SDS011;1506;48.932;9.478;2023-04-01T10:42:41;5.40;;;1.13;;
2992;SDS011;1506;48.932;9.478;2023-04-01T10:59:28;0.83;;;0.83;;
2992;SDS011;1506;48.932;9.478;2023-04-01T11:15:31;0.50;;;0.50;;
2992;SDS011;1506;48.932;9.478;2023-04-01T11:24:26;0.60;;;0.60;;
2992;SDS011;1506;48.932;9.478;2023-04-01T11:31:08;0.83;;;0.83;;
2992;SDS011;1506;48.932;9.478;2023-04-01T11:34:03;1.23;;;1.13;;
2992;SDS011;1506;48.932;9.478;2023-04-01T11:39:17;0.67;;;0.60;;
2992;SDS011;1506;48.932;9.478;2023-04-01T11:45:48;0.70;;;0.60;;
2992;SDS011;1506;48.932;9.478;2023-04-01T11:51:38;0.50;;;0.50;;
2992;SDS011;1506;48.932;9.478;2023-04-01T12:06:14;0.50;;;0.50;;
2992;SDS011;1506;48.932;9.478;2023-04-01T12:12:00;0.90;;;0.80;;
2992;SDS011;1506;48.932;9.478;2023-04-01T12:14:48;0.50;;;0.50;;
2992;SDS011;1506;48.932;9.478;2023-04-01T13:03:42;0.70;;;0.70;;
2992;SDS011;1506;48.932;9.478;2023-04-01T13:27:07;0.80;;;0.70;;
2992;SDS011;1506;48.932;9.478;2023-04-01T13:29:43;0.60;;;0.60;;
2992;SDS011;1506;48.932;9.478;2023-04-01T13:35:34;0.50;;;0.50;;
2992;SDS011;1506;48.932;9.478;2023-04-01T13:44:18;0.63;;;0.63;;
2992;SDS011;1506;48.932;9.478;2023-04-01T13:50:34;0.90;;;0.90;;
2992;SDS011;1506;48.932;9.478;2023-04-01T14:07:48;0.70;;;0.50;;
2992;SDS011;1506;48.932;9.478;2023-04-01T14:10:55;0.50;;;0.50;;
2992;SDS011;1506;48.932;9.478;2023-04-01T14:23:07;16.23;;;1.13;;
2992;SDS011;1506;48.932;9.478;2023-04-01T14:34:18;0.80;;;0.80;;
2992;SDS011;1506;48.932;9.478;2023-04-01T14:43:22;1.40;;;0.70;;
2992;SDS011;1506;48.932;9.478;2023-04-01T14:54:48;0.70;;;0.60;;
2992;SDS011;1506;48.932;9.478;2023-04-01T15:00:05;0.60;;;0.60;;
2992;SDS011;1506;48.932;9.478;2023-04-01T15:02:54;0.60;;;0.60;;
2992;SDS011;1506;48.932;9.478;2023-04-01T15:05:43;0.70;;;0.70;;
2992;SDS011;1506;48.932;9.478;2023-04-01T15:08:23;0.80;;;0.80;;
2992;SDS011;1506;48.932;9.478;2023-04-01T15:17:02;1.57;;;1.47;;
2992;SDS011;1506;48.932;9.478;2023-04-01T15:24:07;2.00;;;0.70;;
2992;SDS011;1506;48.932;9.478;2023-04-01T15:32:49;0.77;;;0.70;;
2992;SDS011;1506;48.932;9.478;2023-04-01T15:51:02;0.93;;;0.83;;
2992;SDS011;1506;48.932;9.478;2023-04-01T15:54:23;1.27;;;0.80;;
2992;SDS011;1506;48.932;9.478;2023-04-01T16:00:22;0.67;;;0.67;;
2992;SDS011;1506;48.932;9.478;2023-04-01T16:03:17;1.17;;;1.17;;
2992;SDS011;1506;48.932;9.478;2023-04-01T16:06:01;0.77;;;0.77;;
2992;SDS011;1506;48.932;9.478;2023-04-01T16:20:19;0.60;;;0.60;;
2992;SDS011;1506;48.932;9.478;2023-04-01T16:23:22;0.60;;;0.60;;
2992;SDS011;1506;48.932;9.478;2023-04-01T16:41:57;5.70;;;1.27;;
2992;SDS011;1506;48.932;9.478;2023-04-01T16:44:49;5.43;;;2.67;;
2992;SDS011;1506;48.932;9.478;2023-04-01T16:47:30;0.70;;;0.70;;
2992;SDS011;1506;48.932;9.478;2023-04-01T16:50:07;0.87;;;0.60;;
2992;SDS011;1506;48.932;9.478;2023-04-01T16:53:08;0.83;;;0.83;;
2992;SDS011;1506;48.932;9.478;2023-04-01T16:55:44;1.87;;;0.83;;
2992;SDS011;1506;48.932;9.478;2023-04-01T16:58:26;1.13;;;0.70;;
2992;SDS011;1506;48.932;9.478;2023-04-01T17:01:07;2.60;;;1.00;;
2992;SDS011;1506;48.932;9.478;2023-04-01T17:04:27;3.90;;;0.90;;
2992;SDS011;1506;48.932;9.478;2023-04-01T17:10:06;1.23;;;1.13;;
2992;SDS011;1506;48.932;9.478;2023-04-01T17:13:18;1.53;;;1.17;;
2992;SDS011;1506;48.932;9.478;2023-04-01T17:21:57;2.20;;;1.00;;
2992;SDS011;1506;48.932;9.478;2023-04-01T17:27:51;0.80;;;0.80;;
2992;SDS011;1506;48.932;9.478;2023-04-01T17:37:06;4.17;;;1.37;;
2992;SDS011;1506;48.932;9.478;2023-04-01T17:43:12;1.70;;;1.50;;
2992;SDS011;1506;48.932;9.478;2023-04-01T17:45:55;1.40;;;1.30;;
2992;SDS011;1506;48.932;9.478;2023-04-01T17:48:37;1.43;;;1.33;;
2992;SDS011;1506;48.932;9.478;2023-04-01T17:59:57;5.27;;;2.00;;
2992;SDS011;1506;48.932;9.478;2023-04-01T18:08:14;1.90;;;1.60;;
2992;SDS011;1506;48.932;9.478;2023-04-01T18:17:16;3.40;;;1.57;;
2992;SDS011;1506;48.932;9.478;2023-04-01T18:22:58;2.10;;;2.00;;
2992;SDS011;1506;48.932;9.478;2023-04-01T18:25:43;10.63;;;4.77;;
2992;SDS011;1506;48.932;9.478;2023-04-01T18:28:22;7.40;;;4.43;;
2992;SDS011;1506;48.932;9.478;2023-04-01T18:36:21;17.37;;;7.73;;
2992;SDS011;1506;48.932;9.478;2023-04-01T18:39:15;5.27;;;3.47;;
2992;SDS011;1506;48.932;9.478;2023-04-01T18:45:20;5.23;;;3.47;;
2992;SDS011;1506;48.932;9.478;2023-04-01T18:48:14;1.87;;;1.77;;
2992;SDS011;1506;48.932;9.478;2023-04-01T18:54:19;3.70;;;3.37;;
2992;SDS011;1506;48.932;9.478;2023-04-01T18:57:01;8.13;;;4.70;;
2992;SDS011;1506;48.932;9.478;2023-04-01T19:00:13;1.93;;;1.67;;
2992;SDS011;1506;48.932;9.478;2023-04-01T19:03:21;7.23;;;3.00;;
2992;SDS011;1506;48.932;9.478;2023-04-01T19:06:18;2.30;;;2.20;;
2992;SDS011;1506;48.932;9.478;2023-04-01T19:08:56;3.07;;;2.70;;
2992;SDS011;1506;48.932;9.478;2023-04-01T19:18:25;16.43;;;6.53;;
2992;SDS011;1506;48.932;9.478;2023-04-01T19:22:21;2.23;;;2.03;;
2992;SDS011;1506;48.932;9.478;2023-04-01T19:24:52;2.30;;;1.77;;
2992;SDS011;1506;48.932;9.478;2023-04-01T19:33:16;3.27;;;1.40;;
2992;SDS011;1506;48.932;9.478;2023-04-01T19:35:42;1.73;;;1.63;;
2992;SDS011;1506;48.932;9.478;2023-04-01T19:39:13;2.03;;;1.93;;
2992;SDS011;1506;48.932;9.478;2023-04-01T19:41:57;2.07;;;1.90;;
2992;SDS011;1506;48.932;9.478;2023-04-01T19:51:06;1.50;;;1.40;;
2992;SDS011;1506;48.932;9.478;2023-04-01T19:53:43;8.07;;;2.90;;
2992;SDS011;1506;48.932;9.478;2023-04-01T19:56:20;1.43;;;1.33;;
2992;SDS011;1506;48.932;9.478;2023-04-01T20:01:44;1.80;;;1.70;;
2992;SDS011;1506;48.932;9.478;2023-04-01T20:04:42;2.47;;;2.20;;
2992;SDS011;1506;48.932;9.478;2023-04-01T20:10:38;3.67;;;3.40;;
2992;SDS011;1506;48.932;9.478;2023-04-01T20:13:21;8.50;;;3.50;;
2992;SDS011;1506;48.932;9.478;2023-04-01T20:15:57;1.70;;;1.00;;
2992;SDS011;1506;48.932;9.478;2023-04-01T20:18:34;1.27;;;1.17;;
2992;SDS011;1506;48.932;9.478;2023-04-01T20:21:35;2.13;;;1.93;;
2992;SDS011;1506;48.932;9.478;2023-04-01T20:24:23;1.80;;;1.70;;
2992;SDS011;1506;48.932;9.478;2023-04-01T20:27:00;2.67;;;1.67;;
2992;SDS011;1506;48.932;9.478;2023-04-01T20:44:12;2.20;;;1.13;;
2992;SDS011;1506;48.932;9.478;2023-04-01T20:46:56;1.70;;;1.60;;
2992;SDS011;1506;48.932;9.478;2023-04-01T21:01:48;4.00;;;2.40;;
2992;SDS011;1506;48.932;9.478;2023-04-01T21:22:11;2.03;;;1.37;;
2992;SDS011;1506;48.932;9.478;2023-04-01T21:24:56;6.40;;;2.03;;
2992;SDS011;1506;48.932;9.478;2023-04-01T21:39:23;5.10;;;2.80;;
2992;SDS011;1506;48.932;9.478;2023-04-01T21:50:43;2.27;;;2.07;;
2992;SDS011;1506;48.932;9.478;2023-04-01T21:56:37;4.83;;;2.93;;
2992;SDS011;1506;48.932;9.478;2023-04-01T22:08:46;1.67;;;1.57;;
2992;SDS011;1506;48.932;9.478;2023-04-01T22:11:26;2.10;;;1.90;;
2992;SDS011;1506;48.932;9.478;2023-04-01T22:17:28;1.20;;;1.10;;
2992;SDS011;1506;48.932;9.478;2023-04-01T22:20:11;2.80;;;1.10;;
2992;SDS011;1506;48.932;9.478;2023-04-01T22:31:40;9.83;;;5.40;;
2992;SDS011;1506;48.932;9.478;2023-04-01T22:37:19;17.53;;;7.73;;
2992;SDS011;1506;48.932;9.478;2023-04-01T22:39:57;4.57;;;4.30;;
2992;SDS011;1506;48.932;9.478;2023-04-01T22:42:46;2.40;;;2.20;;
2992;SDS011;1506;48.932;9.478;2023-04-01T22:48:29;0.97;;;0.90;;
2992;SDS011;1506;48.932;9.478;2023-04-01T22:57:08;2.30;;;1.10;;
2992;SDS011;1506;48.932;9.478;2023-04-01T23:02:34;1.00;;;0.90;;
2992;SDS011;1506;48.932;9.478;2023-04-01T23:05:09;0.70;;;0.70;;
2992;SDS011;1506;48.932;9.478;2023-04-01T23:07:56;0.90;;;0.90;;
2992;SDS011;1506;48.932;9.478;2023-04-01T23:11:04;1.23;;;1.13;;
2992;SDS011;1506;48.932;9.478;2023-04-01T23:13:36;1.00;;;0.93;;
2992;SDS011;1506;48.932;9.478;2023-04-01T23:16:08;0.90;;;0.80;;
2992;SDS011;1506;48.932;9.478;2023-04-01T23:26:58;5.30;;;1.20;;
2992;SDS011;1506;48.932;9.478;2023-04-01T23:29:28;3.63;;;1.10;;
2992;SDS011;1506;48.932;9.478;2023-04-01T23:31:56;0.90;;;0.90;;
2992;SDS011;1506;48.932;9.478;2023-04-01T23:34:30;1.53;;;1.00;;
2992;SDS011;1506;48.932;9.478;2023-04-01T23:37:01;1.03;;;1.03;;
2992;SDS011;1506;48.932;9.478;2023-04-01T23:39:53;1.00;;;1.00;;
2992;SDS011;1506;48.932;9.478;2023-04-01T23:42:32;0.83;;;0.83;;
2992;SDS011;1506;48.932;9.478;2023-04-01T23:45:14;2.20;;;0.90;;
2992;SDS011;1506;48.932;9.478;2023-04-01T23:47:46;2.30;;;0.97;;
2992;SDS011;1506;48.932;9.478;2023-04-01T23:50:20;2.00;;;0.90;;
2992;SDS011;1506;48.932;9.478;2023-04-01T23:52:57;0.87;;;0.87;;
2992;SDS011;1506;48.932;9.478;2023-04-01T23:55:31;1.00;;;0.90;;
2992;SDS011;1506;48.932;9.478;2023-04-01T23:58:02;1.20;;;1.10;;
